Time;durP1;ratioP1;P1;durP2;ratioP2;P2;SDS_P1;SDS_P2;PMS_P1;PMS_P2;Temp;Humidity;BMP_temperature;BMP_pressure;BME280_temperature;BME280_humidity;BME280_pressure;Samples;Min_cycle;Max_cycle;Signal;HPM_P1;HPM_P2
2022/06/29 00:02:07;;;;;;;10.53;2.13;;;22.50;63.90;;;;;;5020082;28;20498;-79
2022/06/29 00:04:35;;;;;;;7.47;2.00;;;22.50;63.70;;;;;;5018662;28;20479;-79
2022/06/29 00:07:04;;;;;;;5.30;2.00;;;22.50;63.60;;;;;;5016295;28;20456;-79
2022/06/29 00:09:32;;;;;;;4.17;1.73;;;22.50;63.60;;;;;;4997874;28;20524;-79
2022/06/29 00:12:00;;;;;;;4.07;1.77;;;22.50;63.40;;;;;;5012927;28;20993;-79
2022/06/29 00:14:29;;;;;;;5.03;1.87;;;22.50;63.60;;;;;;5017783;28;20500;-79
2022/06/29 00:16:58;;;;;;;5.10;1.67;;;22.50;63.60;;;;;;5016794;28;20508;-79
2022/06/29 00:19:26;;;;;;;5.90;2.00;;;22.40;63.40;;;;;;5015576;28;21057;-79
2022/06/29 00:21:54;;;;;;;3.90;1.63;;;22.40;63.60;;;;;;5016215;28;20969;-79
2022/06/29 00:24:21;;;;;;;4.37;2.20;;;22.40;63.60;;;;;;5016281;28;20977;-79
2022/06/29 00:26:50;;;;;;;4.80;1.80;;;22.40;63.60;;;;;;5014953;28;20473;-79
2022/06/29 00:29:18;;;;;;;5.30;1.87;;;22.30;63.60;;;;;;5013710;28;20575;-79
2022/06/29 00:31:48;;;;;;;5.37;1.97;;;22.30;63.60;;;;;;4997826;28;20531;-79
2022/06/29 00:34:16;;;;;;;4.60;2.00;;;22.30;63.80;;;;;;5005917;28;20862;-79
2022/06/29 00:36:44;;;;;;;4.40;2.00;;;22.30;63.90;;;;;;5013675;28;20473;-79
2022/06/29 00:39:12;;;;;;;4.40;2.10;;;22.20;63.90;;;;;;4998713;28;20473;-79
2022/06/29 00:41:40;;;;;;;3.97;2.03;;;22.20;64.00;;;;;;5016677;28;20469;-78
2022/06/29 00:44:09;;;;;;;5.33;1.90;;;22.20;64.10;;;;;;5019826;28;20579;-79
2022/06/29 00:46:40;;;;;;;4.20;1.70;;;22.20;64.10;;;;;;5010536;28;20537;-79
2022/06/29 00:49:10;;;;;;;5.30;1.73;;;22.10;64.20;;;;;;5020953;28;20470;-79
2022/06/29 00:51:39;;;;;;;4.43;1.90;;;22.10;64.30;;;;;;5000497;28;20462;-79
2022/06/29 00:54:09;;;;;;;7.37;1.80;;;22.10;64.30;;;;;;5002840;28;21297;-79
2022/06/29 00:56:37;;;;;;;4.93;2.40;;;22.10;64.30;;;;;;5000813;28;20461;-78
2022/06/29 00:59:06;;;;;;;4.20;1.73;;;22.00;64.40;;;;;;5017160;28;20987;-77
2022/06/29 01:01:36;;;;;;;4.33;1.60;;;22.00;64.40;;;;;;5013004;28;20486;-77
2022/06/29 01:04:04;;;;;;;5.10;1.67;;;22.00;64.40;;;;;;5013908;28;20840;-77
2022/06/29 01:06:34;;;;;;;5.10;2.40;;;21.90;64.50;;;;;;5013928;28;20481;-78
2022/06/29 01:09:03;;;;;;;5.17;2.10;;;21.90;64.50;;;;;;5002383;28;20462;-78
2022/06/29 01:11:31;;;;;;;4.03;1.83;;;21.90;64.60;;;;;;5015401;28;21004;-78
2022/06/29 01:13:59;;;;;;;4.00;1.90;;;21.80;64.60;;;;;;5009932;28;20509;-77
2022/06/29 01:16:29;;;;;;;5.20;1.90;;;21.80;64.70;;;;;;5000178;28;20461;-77
2022/06/29 01:18:57;;;;;;;4.87;2.23;;;21.80;64.70;;;;;;5015733;28;20468;-77
2022/06/29 01:21:28;;;;;;;4.80;2.10;;;21.70;64.80;;;;;;5015310;28;20467;-77
2022/06/29 01:23:57;;;;;;;5.10;2.07;;;21.70;64.90;;;;;;5013196;28;20489;-77
2022/06/29 01:26:25;;;;;;;4.37;2.10;;;21.70;65.00;;;;;;5020264;28;20833;-77
2022/06/29 01:28:53;;;;;;;4.80;2.07;;;21.70;65.10;;;;;;5018522;28;20502;-77
2022/06/29 01:31:21;;;;;;;5.73;2.00;;;21.70;65.20;;;;;;5019707;28;20483;-77
2022/06/29 01:33:49;;;;;;;5.07;1.93;;;21.60;65.30;;;;;;5017852;28;20473;-77
2022/06/29 01:36:18;;;;;;;4.53;2.03;;;21.70;65.30;;;;;;5019440;28;20815;-77
2022/06/29 01:38:46;;;;;;;4.80;2.10;;;21.60;65.40;;;;;;5017129;28;20456;-77
2022/06/29 01:41:15;;;;;;;4.27;1.83;;;21.60;65.50;;;;;;5020368;28;20444;-79
2022/06/29 01:43:43;;;;;;;5.20;2.30;;;21.50;65.60;;;;;;5013975;28;20516;-78
2022/06/29 01:46:11;;;;;;;7.00;2.27;;;21.50;65.70;;;;;;5003371;28;20483;-78
2022/06/29 01:48:39;;;;;;;5.00;2.00;;;21.50;65.80;;;;;;5002531;28;21019;-78
2022/06/29 01:51:07;;;;;;;5.80;2.13;;;21.50;66.00;;;;;;5000054;28;20472;-78
2022/06/29 01:53:35;;;;;;;4.90;1.90;;;21.50;66.10;;;;;;5021469;28;21155;-78
2022/06/29 01:56:03;;;;;;;6.43;2.23;;;21.50;66.00;;;;;;5018800;28;20496;-78
2022/06/29 01:58:32;;;;;;;4.93;1.80;;;21.40;66.00;;;;;;5021050;28;20468;-78
2022/06/29 02:01:00;;;;;;;3.83;1.77;;;21.40;66.20;;;;;;5016924;28;20566;-78
2022/06/29 02:03:29;;;;;;;4.63;2.10;;;21.40;66.30;;;;;;5014204;28;20464;-78
2022/06/29 02:05:57;;;;;;;4.63;2.40;;;21.40;66.30;;;;;;5017740;28;20585;-78
2022/06/29 02:08:25;;;;;;;4.40;2.00;;;21.40;66.40;;;;;;4997120;28;20467;-78
2022/06/29 02:10:52;;;;;;;4.83;2.10;;;21.40;66.50;;;;;;5014366;28;20461;-79
2022/06/29 02:13:20;;;;;;;4.80;2.17;;;21.40;66.60;;;;;;5016676;28;20479;-78
2022/06/29 02:15:50;;;;;;;6.50;2.50;;;21.40;66.70;;;;;;5003400;28;20488;-78
2022/06/29 02:18:18;;;;;;;4.63;1.97;;;21.40;66.80;;;;;;5017349;28;20464;-78
2022/06/29 02:20:46;;;;;;;5.43;2.50;;;21.40;66.90;;;;;;5013987;28;21203;-78
2022/06/29 02:23:14;;;;;;;4.23;2.00;;;21.30;66.90;;;;;;5015994;28;20472;-77
2022/06/29 02:25:42;;;;;;;4.70;2.60;;;21.30;67.10;;;;;;5017348;28;20485;-77
2022/06/29 02:28:10;;;;;;;4.00;1.70;;;21.30;67.20;;;;;;5015963;28;20468;-77
2022/06/29 02:36:11;;;;;;;6.83;2.27;;;21.30;67.30;;;;;;5000842;28;21259;-78
2022/06/29 02:38:38;;;;;;;4.80;2.43;;;21.30;67.40;;;;;;5017649;28;20460;-77
2022/06/29 02:41:06;;;;;;;4.20;1.97;;;21.30;67.40;;;;;;5016510;28;20471;-77
2022/06/29 02:43:34;;;;;;;4.40;2.30;;;21.30;67.40;;;;;;5017830;28;21018;-77
2022/06/29 02:46:02;;;;;;;4.53;1.97;;;21.30;67.40;;;;;;5019659;28;20460;-77
2022/06/29 02:48:32;;;;;;;5.70;2.47;;;21.20;67.40;;;;;;5018109;28;20566;-77
2022/06/29 02:51:00;;;;;;;4.30;2.10;;;21.20;67.40;;;;;;5018997;28;20468;-77
2022/06/29 02:53:28;;;;;;;7.83;2.20;;;21.30;67.40;;;;;;5014667;28;20559;-78
2022/06/29 02:55:56;;;;;;;4.60;2.60;;;21.30;67.40;;;;;;5023398;28;20483;-78
2022/06/29 02:58:24;;;;;;;4.90;2.70;;;21.30;67.40;;;;;;5017678;28;20475;-78
2022/06/29 03:01:01;;;;;;;4.90;2.70;;;21.30;67.40;;;;;;4997600;28;20492;-77
2022/06/29 03:03:29;;;;;;;4.87;2.73;;;21.30;67.40;;;;;;5002735;28;20471;-77
2022/06/29 03:05:59;;;;;;;5.97;2.80;;;21.30;67.30;;;;;;4997280;28;21152;-77
2022/06/29 03:08:27;;;;;;;6.23;3.20;;;21.30;67.20;;;;;;5017709;28;20452;-77
2022/06/29 03:10:54;;;;;;;5.13;3.10;;;21.30;67.10;;;;;;5015099;28;20465;-77
2022/06/29 03:13:22;;;;;;;5.10;2.77;;;21.40;67.20;;;;;;5016567;28;20998;-78
2022/06/29 03:15:51;;;;;;;5.00;2.70;;;21.40;67.20;;;;;;5015062;28;20879;-76
2022/06/29 03:18:19;;;;;;;5.03;2.73;;;21.40;67.20;;;;;;5016809;28;20471;-76
2022/06/29 03:20:47;;;;;;;5.93;2.63;;;21.40;67.10;;;;;;5014888;28;20459;-76
2022/06/29 03:23:16;;;;;;;5.30;3.33;;;21.40;67.10;;;;;;4994653;28;20527;-77
2022/06/29 03:25:52;;;;;;;5.90;3.30;;;21.50;67.10;;;;;;5018970;28;20487;-78
2022/06/29 03:28:20;;;;;;;5.97;2.93;;;21.50;67.10;;;;;;5017395;28;20457;-78
2022/06/29 03:30:48;;;;;;;8.40;3.20;;;21.50;67.10;;;;;;5015239;28;20470;-78
2022/06/29 03:33:15;;;;;;;6.47;2.77;;;21.50;67.20;;;;;;5012787;28;20472;-77
2022/06/29 03:35:43;;;;;;;4.30;2.17;;;21.50;67.30;;;;;;5001921;28;22522;-77
2022/06/29 03:38:11;;;;;;;5.27;2.63;;;21.60;67.30;;;;;;5012364;28;20465;-77
2022/06/29 03:40:41;;;;;;;5.37;3.37;;;21.60;67.30;;;;;;5013513;28;20839;-77
2022/06/29 03:43:09;;;;;;;5.57;3.50;;;21.60;67.30;;;;;;5017559;28;20511;-76
2022/06/29 03:45:36;;;;;;;5.13;3.30;;;21.60;67.30;;;;;;5017946;28;20480;-78
2022/06/29 03:48:05;;;;;;;6.33;3.77;;;21.60;67.20;;;;;;5017388;28;20480;-76
2022/06/29 03:50:33;;;;;;;7.70;4.10;;;21.60;67.20;;;;;;5020947;28;21195;-77
2022/06/29 03:53:01;;;;;;;6.30;4.80;;;21.60;67.40;;;;;;5015325;28;20441;-78
2022/06/29 03:55:29;;;;;;;7.30;5.50;;;21.70;67.60;;;;;;5017064;28;20503;-76
2022/06/29 03:57:59;;;;;;;6.27;4.43;;;21.70;67.80;;;;;;5013970;28;20476;-77
2022/06/29 04:00:26;;;;;;;10.90;6.63;;;21.70;67.90;;;;;;5015058;28;20471;-78
2022/06/29 04:02:54;;;;;;;7.13;3.70;;;21.70;68.10;;;;;;5018825;28;20457;-77
2022/06/29 04:05:22;;;;;;;6.90;4.00;;;21.70;68.20;;;;;;5018224;28;21122;-77
2022/06/29 04:07:52;;;;;;;5.90;4.13;;;21.70;68.20;;;;;;4996331;28;20469;-78
2022/06/29 04:10:20;;;;;;;6.43;4.47;;;21.70;68.20;;;;;;5015991;28;20473;-77
2022/06/29 04:12:48;;;;;;;6.20;3.70;;;21.70;68.20;;;;;;5016626;28;20502;-77
2022/06/29 04:15:17;;;;;;;6.87;4.07;;;21.70;68.10;;;;;;5017562;28;20490;-77
2022/06/29 04:17:45;;;;;;;5.77;4.23;;;21.70;68.10;;;;;;5015627;28;20459;-77
2022/06/29 04:21:05;;;;;;;6.27;3.87;;;21.70;68.20;;;;;;5013305;28;20527;-77
2022/06/29 04:23:02;;;;;;;8.67;4.63;;;21.80;68.20;;;;;;5014037;28;20982;-76
2022/06/29 04:25:30;;;;;;;6.83;4.43;;;21.80;67.90;;;;;;5014914;28;20480;-77
2022/06/29 04:27:58;;;;;;;8.10;4.37;;;21.90;67.60;;;;;;5013829;28;20475;-77
2022/06/29 04:30:27;;;;;;;6.07;3.90;;;21.90;67.30;;;;;;5012711;28;20472;-77
2022/06/29 04:32:56;;;;;;;11.10;3.90;;;22.00;67.10;;;;;;5015128;28;20546;-77
2022/06/29 04:35:23;;;;;;;7.60;4.70;;;22.00;66.80;;;;;;5015184;28;20476;-77
2022/06/29 04:37:51;;;;;;;6.60;4.57;;;22.10;66.70;;;;;;5015650;28;20972;-77
2022/06/29 04:40:19;;;;;;;6.83;5.13;;;22.10;66.70;;;;;;4997433;28;20465;-78
2022/06/29 04:42:47;;;;;;;12.53;5.40;;;22.10;66.70;;;;;;5014724;28;20471;-78
2022/06/29 04:48:00;;;;;;;7.77;5.20;;;22.20;66.60;;;;;;4998390;28;20504;-77
2022/06/29 04:50:29;;;;;;;5.70;4.47;;;22.20;66.60;;;;;;5000160;28;20492;-77
2022/06/29 04:52:57;;;;;;;8.07;4.80;;;22.20;66.70;;;;;;5017790;28;20478;-80
2022/06/29 04:55:28;;;;;;;7.33;4.80;;;22.20;66.80;;;;;;5022227;28;21632;-79
2022/06/29 04:57:56;;;;;;;9.03;5.40;;;22.20;66.90;;;;;;5018353;28;20460;-80
2022/06/29 05:00:24;;;;;;;10.80;5.20;;;22.20;67.00;;;;;;4998983;28;20459;-79
2022/06/29 05:02:52;;;;;;;6.93;4.27;;;22.30;67.10;;;;;;5013773;28;20454;-79
2022/06/29 05:05:22;;;;;;;9.10;4.67;;;22.30;67.00;;;;;;5018311;28;20473;-79
2022/06/29 05:07:50;;;;;;;7.23;4.70;;;22.30;66.70;;;;;;5018620;28;20444;-79
2022/06/29 05:10:18;;;;;;;5.87;4.23;;;22.40;66.60;;;;;;5016778;28;20534;-80
2022/06/29 05:12:46;;;;;;;7.20;5.03;;;22.40;66.40;;;;;;5020841;28;20444;-79
2022/06/29 05:15:14;;;;;;;6.97;4.80;;;22.50;66.30;;;;;;5021311;28;20473;-79
2022/06/29 05:17:42;;;;;;;6.50;4.80;;;22.60;66.10;;;;;;5018110;28;20498;-79
2022/06/29 05:20:11;;;;;;;7.47;4.70;;;22.70;65.80;;;;;;5003348;28;20461;-79
2022/06/29 05:22:40;;;;;;;8.30;5.47;;;22.70;65.30;;;;;;5021971;28;20451;-79
2022/06/29 05:25:10;;;;;;;7.10;4.30;;;22.60;65.10;;;;;;5020071;28;20495;-79
2022/06/29 05:27:38;;;;;;;7.10;4.60;;;22.60;64.90;;;;;;5023279;28;20457;-80
2022/06/29 05:30:07;;;;;;;8.40;4.97;;;22.60;64.80;;;;;;5018386;28;20717;-79
2022/06/29 05:32:35;;;;;;;9.73;5.63;;;22.60;64.80;;;;;;5023820;28;20472;-79
2022/06/29 05:35:04;;;;;;;6.93;4.93;;;22.60;64.70;;;;;;5021684;28;20539;-79
2022/06/29 05:37:33;;;;;;;8.53;4.77;;;22.60;64.50;;;;;;5004623;28;20565;-80
2022/06/29 05:40:02;;;;;;;9.53;5.53;;;22.60;64.50;;;;;;5023061;28;20513;-79
2022/06/29 05:42:30;;;;;;;9.10;5.87;;;22.70;65.10;;;;;;5019850;28;20456;-80
2022/06/29 05:44:58;;;;;;;7.30;5.03;;;23.00;64.70;;;;;;5005130;28;20480;-79
2022/06/29 05:47:26;;;;;;;7.10;5.20;;;23.30;64.80;;;;;;5018558;28;20934;-80
2022/06/29 05:49:55;;;;;;;7.20;5.27;;;24.10;64.80;;;;;;5014181;28;20498;-80
2022/06/29 05:52:23;;;;;;;8.07;5.93;;;25.20;63.60;;;;;;5016253;28;20448;-80
2022/06/29 05:54:51;;;;;;;8.97;4.70;;;26.20;61.90;;;;;;5017619;28;21177;-80
2022/06/29 05:57:27;;;;;;;11.23;5.77;;;27.00;60.70;;;;;;5014155;28;20577;-81
2022/06/29 05:59:55;;;;;;;10.07;6.47;;;27.50;58.90;;;;;;5001223;28;20491;-82
2022/06/29 06:02:23;;;;;;;10.30;6.27;;;27.20;57.90;;;;;;5016856;28;20486;-81
2022/06/29 06:04:52;;;;;;;8.93;6.20;;;26.50;58.00;;;;;;5019429;28;20507;-81
2022/06/29 06:07:20;;;;;;;10.07;7.00;;;25.80;58.80;;;;;;5014384;28;20518;-81
2022/06/29 06:09:48;;;;;;;10.90;7.70;;;25.20;59.50;;;;;;5015193;28;20742;-81
2022/06/29 06:12:17;;;;;;;9.13;6.90;;;24.80;60.40;;;;;;5019734;28;20455;-81
2022/06/29 06:14:46;;;;;;;9.83;8.27;;;24.50;61.10;;;;;;5022731;28;20491;-81
2022/06/29 06:17:14;;;;;;;9.53;8.10;;;24.20;61.60;;;;;;5002561;28;20487;-81
2022/06/29 06:19:43;;;;;;;11.43;7.40;;;24.10;62.20;;;;;;5021769;28;20465;-81
2022/06/29 06:22:10;;;;;;;11.83;7.80;;;24.10;62.50;;;;;;5020983;28;20451;-81
2022/06/29 06:24:38;;;;;;;10.37;7.87;;;24.10;62.90;;;;;;5005633;28;20482;-81
2022/06/29 06:27:06;;;;;;;9.30;7.50;;;24.30;63.60;;;;;;5018542;28;20907;-82
2022/06/29 06:29:34;;;;;;;10.47;7.80;;;24.50;63.80;;;;;;5021913;28;20470;-82
2022/06/29 06:32:04;;;;;;;8.43;6.10;;;24.70;63.60;;;;;;5007046;28;20470;-82
2022/06/29 06:34:33;;;;;;;10.13;7.13;;;24.90;63.50;;;;;;5025320;28;20481;-81
2022/06/29 06:37:01;;;;;;;9.20;7.50;;;25.10;63.50;;;;;;5024924;28;20481;-81
2022/06/29 06:39:29;;;;;;;10.07;8.37;;;25.20;63.10;;;;;;5018525;28;20479;-81
2022/06/29 06:41:56;;;;;;;10.30;8.40;;;25.20;62.80;;;;;;5022995;28;20473;-82
2022/06/29 06:44:24;;;;;;;10.70;9.00;;;25.10;62.80;;;;;;5022344;28;20508;-82
2022/06/29 06:46:59;;;;;;;9.70;8.40;;;25.10;63.00;;;;;;5020382;28;20481;-82
2022/06/29 06:49:29;;;;;;;10.47;7.80;;;25.00;63.00;;;;;;5016988;28;20469;-82
2022/06/29 06:51:57;;;;;;;9.97;8.00;;;24.90;63.10;;;;;;5017949;28;20520;-81
2022/06/29 06:54:25;;;;;;;11.83;8.60;;;24.80;63.10;;;;;;5015459;28;20533;-82
2022/06/29 06:56:52;;;;;;;11.00;8.43;;;24.80;63.30;;;;;;5020828;28;20476;-81
2022/06/29 06:59:20;;;;;;;13.60;8.53;;;24.70;63.40;;;;;;5020413;28;20476;-82
2022/06/29 07:01:48;;;;;;;10.57;8.67;;;24.70;63.40;;;;;;5016026;28;21042;-82
2022/06/29 07:04:17;;;;;;;13.37;9.77;;;24.50;63.50;;;;;;5012371;28;20540;-82
2022/06/29 07:06:46;;;;;;;9.53;7.90;;;24.40;63.70;;;;;;5004357;28;20500;-81
2022/06/29 07:09:14;;;;;;;12.40;9.53;;;24.30;64.00;;;;;;5023680;28;20982;-81
2022/06/29 07:11:43;;;;;;;11.33;9.13;;;24.30;64.10;;;;;;5016720;28;20450;-81
2022/06/29 07:14:11;;;;;;;9.97;8.30;;;24.20;64.20;;;;;;5014533;28;20513;-82
2022/06/29 07:16:39;;;;;;;10.97;8.50;;;24.20;64.30;;;;;;5022236;28;20479;-82
2022/06/29 07:19:07;;;;;;;12.57;8.20;;;24.20;64.50;;;;;;5020809;28;21007;-81
2022/06/29 07:21:35;;;;;;;10.03;8.23;;;24.20;64.70;;;;;;5020165;28;20515;-81
2022/06/29 07:24:05;;;;;;;16.83;9.10;;;24.20;64.90;;;;;;5026008;28;20492;-82
2022/06/29 07:26:33;;;;;;;11.50;9.23;;;24.20;64.90;;;;;;5023547;28;20540;-81
2022/06/29 07:29:01;;;;;;;14.67;9.47;;;24.20;65.00;;;;;;5021205;28;20470;-81
2022/06/29 07:31:29;;;;;;;11.83;9.93;;;24.20;65.10;;;;;;5016670;28;20504;-81
2022/06/29 07:33:57;;;;;;;13.20;9.23;;;24.30;65.20;;;;;;5020110;28;20473;-82
2022/06/29 07:36:25;;;;;;;11.07;8.80;;;24.30;65.20;;;;;;5003619;28;20453;-82
2022/06/29 07:38:54;;;;;;;11.30;10.07;;;24.30;65.40;;;;;;5018713;28;20971;-81
2022/06/29 07:41:24;;;;;;;11.60;9.93;;;24.30;65.40;;;;;;5012509;28;20463;-82
2022/06/29 07:43:52;;;;;;;12.33;9.57;;;24.30;65.50;;;;;;5015807;28;20463;-82
2022/06/29 07:46:21;;;;;;;12.00;9.80;;;24.40;65.50;;;;;;5024784;28;20477;-81
2022/06/29 07:48:49;;;;;;;12.50;9.60;;;24.40;65.60;;;;;;5021883;28;20485;-82
2022/06/29 07:51:17;;;;;;;11.70;9.80;;;24.50;65.70;;;;;;5017351;28;20485;-81
2022/06/29 07:53:45;;;;;;;11.70;9.80;;;24.50;65.70;;;;;;5021976;28;20455;-81
2022/06/29 07:56:13;;;;;;;15.10;11.33;;;24.50;65.70;;;;;;5021889;28;20476;-81
2022/06/29 07:58:43;;;;;;;14.77;10.60;;;24.60;65.80;;;;;;5018682;28;20485;-82
2022/06/29 08:01:11;;;;;;;13.13;10.47;;;24.60;65.90;;;;;;5013946;28;20518;-82
2022/06/29 08:03:40;;;;;;;12.80;9.90;;;24.70;66.00;;;;;;5019866;28;21039;-81
2022/06/29 08:06:08;;;;;;;15.00;10.63;;;24.80;66.20;;;;;;5019875;28;20478;-82
2022/06/29 08:08:37;;;;;;;11.40;10.20;;;24.90;66.10;;;;;;5019370;28;20967;-82
2022/06/29 08:11:06;;;;;;;15.30;10.70;;;24.90;66.10;;;;;;4998690;28;20478;-82
2022/06/29 08:13:34;;;;;;;15.33;9.50;;;25.00;66.00;;;;;;5001611;28;20456;-82
2022/06/29 08:16:04;;;;;;;12.63;10.70;;;25.10;66.00;;;;;;5020907;28;20487;-81
2022/06/29 08:18:32;;;;;;;11.53;9.80;;;25.10;66.00;;;;;;5020618;28;20541;-81
2022/06/29 08:21:00;;;;;;;13.97;10.90;;;25.10;66.00;;;;;;5005465;28;20544;-82
2022/06/29 08:23:28;;;;;;;15.30;10.70;;;25.20;66.00;;;;;;5024697;28;20513;-82
2022/06/29 08:25:56;;;;;;;11.13;9.17;;;25.20;65.90;;;;;;5023576;28;20547;-81
2022/06/29 08:28:44;;;;;;;12.80;10.13;;;25.20;65.90;;;;;;5003137;28;20527;-82
2022/06/29 08:31:13;;;;;;;12.47;10.40;;;25.20;65.90;;;;;;5016636;28;21035;-82
2022/06/29 08:33:43;;;;;;;11.60;9.43;;;25.20;66.00;;;;;;5023586;28;20580;-81
2022/06/29 08:36:11;;;;;;;12.37;10.13;;;25.20;66.00;;;;;;5001434;28;20465;-81
2022/06/29 08:39:00;;;;;;;12.13;10.37;;;25.10;66.00;;;;;;5013708;28;20550;-82
2022/06/29 08:41:30;;;;;;;17.90;12.23;;;25.10;66.10;;;;;;5010095;28;21173;-82
2022/06/29 08:44:00;;;;;;;16.03;10.47;;;25.10;66.10;;;;;;5024849;28;20455;-82
2022/06/29 08:46:30;;;;;;;11.67;9.90;;;25.10;66.20;;;;;;5020898;28;21020;-82
2022/06/29 08:48:58;;;;;;;14.60;11.53;;;25.00;66.30;;;;;;5015846;28;20466;-82
2022/06/29 08:51:32;;;;;;;14.03;10.50;;;25.00;66.40;;;;;;5002815;28;20455;-82
2022/06/29 08:54:02;;;;;;;15.43;11.40;;;25.10;66.40;;;;;;5018761;28;20478;-82
2022/06/29 08:56:31;;;;;;;13.80;10.17;;;25.10;66.50;;;;;;5020425;28;20458;-82
2022/06/29 08:59:01;;;;;;;15.00;10.80;;;25.20;66.30;;;;;;5004711;28;20479;-82
2022/06/29 09:01:31;;;;;;;12.63;9.60;;;25.20;66.40;;;;;;5004235;28;21036;-81
2022/06/29 09:03:59;;;;;;;13.93;11.07;;;25.20;66.40;;;;;;5002547;28;20537;-81
2022/06/29 09:06:26;;;;;;;13.83;11.47;;;25.20;66.40;;;;;;5012959;28;20997;-82
2022/06/29 09:08:54;;;;;;;11.33;9.47;;;25.20;66.40;;;;;;5013995;28;20484;-82
2022/06/29 09:11:25;;;;;;;11.90;9.57;;;25.20;66.40;;;;;;5014788;28;20558;-81
2022/06/29 09:14:11;;;;;;;11.00;9.40;;;25.20;66.40;;;;;;5004671;28;20976;-82
2022/06/29 09:17:00;;;;;;;12.07;9.57;;;25.20;66.50;;;;;;5012879;28;20482;-81
2022/06/29 09:19:30;;;;;;;13.87;10.47;;;25.30;66.50;;;;;;5015282;28;20490;-82
2022/06/29 09:21:59;;;;;;;11.73;9.50;;;25.30;66.80;;;;;;5016892;28;20975;-82
2022/06/29 09:24:29;;;;;;;12.50;9.87;;;25.30;66.70;;;;;;5021484;28;20479;-82
2022/06/29 09:27:00;;;;;;;14.83;10.20;;;25.30;66.80;;;;;;5011214;28;20444;-82
2022/06/29 09:29:29;;;;;;;14.13;10.70;;;25.30;66.90;;;;;;5002513;28;20467;-82
2022/06/29 09:32:16;;;;;;;13.57;8.77;;;25.30;67.00;;;;;;5012331;28;20494;-82
2022/06/29 09:34:46;;;;;;;13.13;9.33;;;25.30;67.20;;;;;;5021706;28;20503;-82
2022/06/29 09:37:16;;;;;;;11.60;10.30;;;25.30;67.20;;;;;;5011651;28;20458;-82
2022/06/29 09:39:46;;;;;;;13.10;10.33;;;25.40;67.30;;;;;;5014634;28;20475;-81
2022/06/29 09:42:16;;;;;;;10.60;9.30;;;25.40;67.20;;;;;;5014554;28;20494;-82
2022/06/29 09:44:45;;;;;;;11.60;9.77;;;25.50;67.20;;;;;;4999989;28;20564;-81
2022/06/29 09:47:16;;;;;;;12.13;10.17;;;25.50;67.10;;;;;;5020109;28;20464;-81
2022/06/29 09:49:45;;;;;;;13.23;10.50;;;25.50;67.10;;;;;;5024835;28;20462;-81
2022/06/29 09:52:14;;;;;;;13.67;10.27;;;25.50;67.10;;;;;;5019409;28;20474;-82
2022/06/29 09:54:47;;;;;;;11.43;9.90;;;25.60;67.10;;;;;;5022992;28;20488;-82
2022/06/29 09:57:19;;;;;;;12.57;9.23;;;25.60;67.20;;;;;;5019800;28;20471;-82
2022/06/29 10:02:39;;;;;;;11.07;8.90;;;25.60;67.10;;;;;;5023197;28;21252;-81
2022/06/29 10:05:10;;;;;;;13.23;9.63;;;25.60;67.10;;;;;;5023355;28;20510;-81
2022/06/29 10:07:40;;;;;;;14.20;9.57;;;25.70;67.00;;;;;;5004159;28;20515;-81
2022/06/29 10:10:10;;;;;;;14.40;10.20;;;25.70;67.00;;;;;;5023557;28;20455;-82
2022/06/29 10:16:05;;;;;;;11.40;8.93;;;25.80;67.30;;;;;;5022365;28;20554;-81
2022/06/29 10:18:54;;;;;;;14.90;8.70;;;25.80;67.40;;;;;;5023739;28;20535;-81
2022/06/29 10:21:26;;;;;;;10.77;8.57;;;25.90;67.30;;;;;;5022697;28;20460;-81
2022/06/29 10:23:55;;;;;;;12.93;9.20;;;26.00;67.20;;;;;;5021817;28;20962;-82
2022/06/29 10:26:46;;;;;;;14.03;9.87;;;26.00;67.20;;;;;;5022022;28;20465;-82
2022/06/29 10:29:31;;;;;;;13.23;8.80;;;26.10;67.10;;;;;;5000788;28;20464;-82
2022/06/29 10:32:20;;;;;;;13.07;8.90;;;26.10;67.20;;;;;;5018356;28;20488;-82
2022/06/29 10:35:08;;;;;;;10.93;8.90;;;26.10;67.10;;;;;;5001925;28;20526;-81
2022/06/29 10:37:49;;;;;;;14.27;9.60;;;26.20;67.20;;;;;;5000423;28;21004;-81
2022/06/29 10:40:18;;;;;;;12.90;8.13;;;26.30;67.20;;;;;;5018554;28;20494;-81
2022/06/29 10:45:36;;;;;;;13.03;8.10;;;26.50;66.80;;;;;;5015131;28;20567;-79
2022/06/29 10:48:21;;;;;;;11.60;8.00;;;26.60;66.70;;;;;;5024647;28;21028;-79
2022/06/29 10:50:52;;;;;;;11.20;7.17;;;26.70;66.60;;;;;;5024197;28;20969;-79
2022/06/29 10:53:21;;;;;;;11.80;6.50;;;26.80;66.40;;;;;;5021171;28;20455;-79
2022/06/29 10:55:56;;;;;;;8.97;6.93;;;26.90;66.10;;;;;;5015957;28;20472;-79
2022/06/29 10:58:25;;;;;;;10.47;6.77;;;26.90;65.60;;;;;;5010812;28;20469;-79
2022/06/29 11:00:54;;;;;;;9.30;6.13;;;27.00;65.60;;;;;;5021873;28;20581;-79
2022/06/29 11:03:25;;;;;;;10.53;7.20;;;27.00;65.40;;;;;;4997851;28;20479;-80
2022/06/29 11:17:02;;;;;;;10.97;7.50;;;27.20;64.70;;;;;;5021522;28;20911;-79
2022/06/29 11:19:33;;;;;;;10.63;7.43;;;27.20;64.60;;;;;;5003223;28;20470;-79
2022/06/29 11:22:15;;;;;;;9.40;7.83;;;27.20;64.50;;;;;;5009558;28;20462;-79
2022/06/29 11:24:57;;;;;;;12.80;9.00;;;27.10;64.40;;;;;;5021961;28;20548;-79
2022/06/29 11:27:33;;;;;;;12.57;7.57;;;27.10;64.50;;;;;;5022768;28;20489;-79
2022/06/29 11:30:01;;;;;;;11.03;8.50;;;27.10;64.60;;;;;;5025552;28;20454;-78
2022/06/29 11:32:38;;;;;;;11.23;7.40;;;27.10;64.60;;;;;;5026174;28;20536;-79
2022/06/29 11:35:07;;;;;;;12.37;8.43;;;27.20;64.50;;;;;;5032385;28;20481;-79
2022/06/29 11:37:46;;;;;;;13.70;7.10;;;27.20;64.50;;;;;;5029596;28;20482;-79
2022/06/29 11:40:15;;;;;;;10.30;7.80;;;27.20;64.40;;;;;;5017298;28;20490;-79
2022/06/29 11:45:43;;;;;;;9.07;7.33;;;27.30;64.30;;;;;;4984503;28;20478;-79
2022/06/29 11:48:16;;;;;;;9.60;7.50;;;27.30;64.20;;;;;;5029306;28;20450;-78
2022/06/29 11:50:52;;;;;;;11.20;6.80;;;27.30;64.00;;;;;;5024561;28;20478;-79
2022/06/29 11:53:39;;;;;;;8.63;6.70;;;27.20;63.80;;;;;;5017125;28;20445;-78
2022/06/29 11:56:11;;;;;;;8.23;6.60;;;27.20;63.70;;;;;;5020565;28;20473;-79
2022/06/29 11:58:42;;;;;;;8.97;6.20;;;27.10;63.70;;;;;;5013749;28;20521;-79
2022/06/29 12:01:13;;;;;;;10.00;5.70;;;27.10;63.70;;;;;;5013239;28;20491;-78
2022/06/29 12:03:50;;;;;;;9.50;6.20;;;27.10;63.50;;;;;;5019657;28;20454;-79
2022/06/29 12:06:19;;;;;;;10.77;6.17;;;27.20;63.40;;;;;;5022315;28;21008;-79
2022/06/29 12:08:49;;;;;;;7.60;5.60;;;27.20;63.30;;;;;;5021939;28;21806;-78
2022/06/29 12:11:18;;;;;;;10.00;6.50;;;27.20;63.20;;;;;;5016837;28;20494;-79
2022/06/29 12:13:46;;;;;;;11.90;7.80;;;27.20;63.20;;;;;;5019786;28;20450;-79
2022/06/29 12:16:14;;;;;;;10.80;7.27;;;27.20;63.30;;;;;;5021768;28;20564;-77
2022/06/29 12:18:42;;;;;;;9.87;7.00;;;27.20;63.40;;;;;;5020316;28;20450;-76
2022/06/29 12:21:10;;;;;;;10.50;7.23;;;27.20;63.50;;;;;;5014115;28;20478;-77
2022/06/29 12:23:39;;;;;;;12.10;8.13;;;27.20;63.50;;;;;;5021226;28;20867;-77
2022/06/29 12:26:08;;;;;;;10.07;8.20;;;27.10;63.80;;;;;;5025772;28;20524;-77
2022/06/29 12:28:38;;;;;;;9.07;7.90;;;27.10;63.90;;;;;;5017112;28;20951;-77
2022/06/29 12:31:07;;;;;;;11.00;7.50;;;27.20;63.90;;;;;;5016207;28;20466;-77
2022/06/29 12:33:35;;;;;;;9.57;7.17;;;27.20;63.90;;;;;;5013443;28;20453;-77
2022/06/29 12:36:03;;;;;;;11.33;6.70;;;27.20;63.90;;;;;;5024375;28;21233;-77
2022/06/29 12:38:31;;;;;;;9.43;6.37;;;27.20;63.90;;;;;;5016445;28;20455;-77
2022/06/29 12:40:59;;;;;;;8.83;7.50;;;27.10;63.90;;;;;;5024198;28;20470;-77
2022/06/29 12:43:28;;;;;;;9.00;6.80;;;27.10;64.00;;;;;;4998545;28;20459;-77
2022/06/29 12:45:56;;;;;;;9.97;6.70;;;27.20;64.00;;;;;;5008531;28;20530;-77
2022/06/29 12:48:24;;;;;;;8.53;5.90;;;27.20;64.00;;;;;;5022194;28;20458;-77
2022/06/29 12:50:52;;;;;;;11.50;6.60;;;27.20;64.00;;;;;;5011197;28;20463;-77
2022/06/29 12:53:20;;;;;;;7.80;5.90;;;27.20;63.90;;;;;;5012044;28;20462;-77
2022/06/29 12:55:48;;;;;;;9.07;5.67;;;27.20;63.90;;;;;;5020253;28;20480;-77
2022/06/29 12:58:16;;;;;;;7.70;5.03;;;27.20;63.70;;;;;;5017440;28;20458;-77
2022/06/29 13:00:46;;;;;;;13.80;6.37;;;27.20;63.60;;;;;;5021234;28;20592;-77
2022/06/29 13:03:15;;;;;;;8.70;5.77;;;27.30;63.60;;;;;;5010739;28;20542;-77
2022/06/29 13:05:43;;;;;;;11.70;6.30;;;27.30;63.80;;;;;;5016509;28;20471;-77
2022/06/29 13:08:11;;;;;;;11.83;6.93;;;27.30;63.90;;;;;;5019056;28;20474;-77
2022/06/29 13:10:39;;;;;;;8.97;6.33;;;27.30;63.90;;;;;;5016848;28;20967;-77
2022/06/29 13:13:07;;;;;;;8.47;5.83;;;27.40;63.70;;;;;;5022542;28;20451;-77
2022/06/29 13:15:35;;;;;;;11.23;6.40;;;27.40;63.80;;;;;;4992574;28;20480;-77
2022/06/29 13:18:04;;;;;;;7.27;5.30;;;27.40;64.00;;;;;;5018559;28;20459;-77
2022/06/29 13:20:32;;;;;;;10.83;6.70;;;27.40;64.10;;;;;;5020997;28;20494;-77
2022/06/29 13:23:00;;;;;;;10.27;6.50;;;27.40;64.10;;;;;;5026179;28;20451;-77
2022/06/29 13:25:28;;;;;;;8.50;6.33;;;27.40;64.30;;;;;;5021407;28;20504;-77